Latest Weather Observations for Macquarie Island

IDT60801

Issued at 5:11 pm EDT Tuesday 26 March 2019 (issued every 10 minutes, with the page automatically refreshed every 10 minutes)

About weather observations | Map of weather stations | Latest weather observations for TAS | Other Formats
Station Details ID: 300004 Name: MACQUARIE ISLAND Lat: -54.50 Lon: 158.94 Height: 6.0 m
Data from the previous 72 hours. | See also: Recent months at Macquarie Island
Date/Time
EDT
Temp
°C
App
Temp
°C
Dew
Point
°C
Rel
Hum
%
Delta-T
°C
Wind Press
QNH
hPa
Press
MSL
hPa
Rain since
9am
mm
Dir  Spd
km/h
Gust
km/h
Spd
kts
Gust
kts
26/05:00pm 8.3 0.3 7.4 94 0.4 N 39 65 21 35 967.7 - 4.6
26/04:44pm 8.6 1.8 7.7 94 0.4 N 33 57 18 31 968.3 - 4.0
26/04:30pm 8.1 5.3 7.0 93 0.5 ENE 11 19 6 10 968.8 - 3.0
26/04:00pm 8.6 2.6 7.2 91 0.7 N 28 50 15 27 969.7 - 0.4
26/03:30pm 9.0 1.7 7.0 87 0.9 N 35 57 19 31 970.5 - 0.2
26/03:00pm 9.4 0.5 7.0 85 1.2 N 43 65 23 35 971.3 971.6 0.2
26/02:41pm 9.5 1.0 7.1 85 1.1 N 41 61 22 33 971.9 - 0.2
26/02:30pm 9.5 1.0 7.1 85 1.1 N 41 52 22 28 972.3 - 0.2
26/02:00pm 10.1 3.3 7.7 85 1.2 N 33 41 18 22 973.0 - 0.2
26/01:30pm 9.2 3.6 7.2 87 0.9 N 26 33 14 18 973.7 - 0.2
26/01:00pm 9.2 2.9 7.3 88 0.9 N 30 33 16 18 974.2 - 0.2
26/12:30pm 8.7 1.9 7.5 92 0.6 N 33 39 18 21 974.7 - 0.2
26/12:00pm 9.0 1.7 7.1 88 0.9 NNW 35 43 19 23 974.9 975.2 0.2
26/11:30am 9.1 1.8 7.2 88 0.9 N 35 41 19 22 975.3 - 0.2
26/11:00am 8.9 2.2 7.2 89 0.8 N 32 35 17 19 975.6 - 0.2
26/10:30am 8.7 1.4 7.2 90 0.7 N 35 39 19 21 975.9 - 0.2
26/10:00am 8.3 0.9 6.9 91 0.6 N 35 41 19 22 976.0 - 0.2
26/09:30am 8.3 -0.1 7.4 94 0.4 N 41 52 22 28 976.0 - 0.2
26/09:00am 8.1 1.7 7.0 93 0.5 N 30 35 16 19 976.5 976.8 8.0
26/08:30am 7.6 1.6 6.9 95 0.3 N 28 32 15 17 976.8 - 8.0
26/08:00am 7.7 0.7 7.0 95 0.3 N 33 39 18 21 976.9 - 8.0
26/07:30am 7.2 0.8 6.8 97 0.2 N 30 35 16 19 977.0 - 8.0
26/07:00am 7.1 2.7 6.7 97 0.2 NNW 19 26 10 14 977.2 - 8.0
26/06:30am 7.0 2.4 6.6 97 0.2 NNW 20 24 11 13 977.2 - 8.0
26/06:00am 7.1 1.8 6.7 97 0.2 NNW 24 28 13 15 977.5 977.8 7.6
26/05:30am 7.3 0.5 6.9 97 0.2 NNW 32 35 17 19 977.5 - 7.4
26/05:00am 7.8 -0.2 7.4 97 0.2 NNW 39 46 21 25 977.6 - 6.2
26/04:54am 7.9 0.7 7.5 97 0.2 NNW 35 46 19 25 977.7 - 6.0
26/04:30am 7.6 2.4 7.2 97 0.2 N 24 28 13 15 977.6 - 5.8
26/04:00am 7.7 0.8 7.4 98 0.1 N 33 39 18 21 978.0 - 5.8
26/03:30am 7.5 1.9 7.2 98 0.1 N 26 28 14 15 978.6 - 5.0
26/03:00am 7.8 2.7 7.5 98 0.1 N 24 26 13 14 979.1 979.4 4.8
26/02:30am 7.6 3.2 7.3 98 0.1 N 20 26 11 14 979.2 - 4.8
26/02:00am 7.6 2.8 7.3 98 0.1 N 22 26 12 14 979.9 - 4.8
26/01:30am 8.0 1.4 7.7 98 0.1 N 32 39 17 21 980.5 - 4.4
26/01:00am 7.9 1.3 7.6 98 0.1 NNW 32 35 17 19 980.3 - 4.4
26/12:30am 8.2 1.6 7.9 98 0.1 N 32 35 17 19 980.7 - 4.4
26/12:00am 8.8 1.8 8.4 97 0.2 N 35 43 19 23 980.8 981.1 4.4
 
Date/Time
EDT
Temp
°C
App
Temp
°C
Dew
Point
°C
Rel
Hum
%
Delta-T
°C
Wind Press
QNH
hPa
Press
MSL
hPa
Rain since
9am
mm
Dir  Spd
km/h
Gust
km/h
Spd
kts
Gust
kts
25/11:30pm 10.0 0.4 9.5 97 0.2 N 50 65 27 35 981.2 - 3.8
25/11:00pm 9.5 0.5 9.0 97 0.2 N 46 67 25 36 981.5 - 3.2
25/10:30pm 9.7 0.8 9.2 97 0.2 N 46 69 25 37 982.1 - 3.2
25/10:00pm 9.4 0.8 8.9 97 0.2 N 44 70 24 38 982.9 - 3.0
25/09:44pm 9.6 2.4 9.3 98 0.1 N 37 65 20 35 983.2 - 2.6
25/09:30pm 9.4 4.6 8.9 97 0.2 NNE 24 46 13 25 983.5 - 1.6
25/09:00pm 9.6 4.5 9.3 98 0.2 N 26 56 14 30 984.2 984.5 1.6
25/08:43pm 9.2 4.4 8.7 97 0.2 NE 24 30 13 16 983.9 - 1.6
25/08:30pm 9.6 1.3 9.3 98 0.1 N 43 63 23 34 984.6 - 1.2
25/08:20pm 9.8 1.0 9.5 98 0.1 N 46 65 25 35 985.1 - 0.8
25/08:00pm 10.1 1.4 9.8 98 0.2 N 46 61 25 33 985.5 - 0.6
25/07:30pm 10.0 1.6 9.7 98 0.2 N 44 65 24 35 986.1 - 0.6
25/07:00pm 9.8 1.4 9.5 98 0.1 N 44 70 24 38 986.1 - 0.6
25/06:30pm 9.8 3.4 9.5 98 0.1 NNE 33 59 18 32 986.2 - 0.6
25/06:00pm 9.6 3.2 9.3 98 0.2 NNE 33 52 18 28 986.6 986.9 0.6
25/05:34pm 9.9 2.4 9.6 98 0.1 NNE 39 57 21 31 987.3 - 0.6
25/05:30pm 10.1 2.3 9.8 98 0.2 NNE 41 57 22 31 987.3 - 0.6
25/05:17pm 9.7 4.3 9.4 98 0.1 NNE 28 48 15 26 987.6 - 0.6
25/05:00pm 9.6 4.5 9.3 98 0.1 NNE 26 37 14 20 987.6 - 0.6
25/04:30pm 9.5 4.8 9.2 98 0.1 NNE 24 39 13 21 988.2 - 0.6
25/04:02pm 10.0 4.7 9.7 98 0.2 NNE 28 48 15 26 989.0 - 0.6
25/04:00pm 9.9 5.3 9.6 98 0.1 NNE 24 41 13 22 989.0 - 0.6
25/03:30pm 9.3 4.5 9.0 98 0.1 NNE 24 37 13 20 989.5 - 0.6
25/03:00pm 8.8 4.7 8.5 98 0.1 NE 20 33 11 18 990.4 990.7 0.6
25/02:30pm 7.9 5.6 7.5 97 0.2 S 9 19 5 10 991.1 - 0.4
25/02:00pm 7.7 5.4 7.3 97 0.2 SSE 9 15 5 8 992.0 - 0.4
25/01:30pm 7.6 3.7 7.2 97 0.2 SSE 17 24 9 13 992.7 - 0.4
25/01:00pm 7.5 3.2 7.1 97 0.2 SSE 19 26 10 14 993.2 - 0.4
25/12:30pm 7.0 2.4 6.6 97 0.2 SSE 20 30 11 16 994.2 - 0.2
25/12:00pm 6.7 2.0 6.1 96 0.3 SSE 20 24 11 13 995.4 995.7 0.0
25/11:30am 6.9 3.6 6.5 97 0.2 SE 13 19 7 10 996.5 - 0.0
25/11:00am 6.7 3.3 6.1 96 0.3 E 13 22 7 12 997.6 - 0.0
25/10:30am 6.4 2.6 5.8 96 0.3 E 15 26 8 14 997.9 - 0.0
25/10:00am 6.2 2.4 5.6 96 0.3 E 15 22 8 12 998.3 - 0.0
25/09:30am 5.8 1.1 3.1 83 1.1 E 17 26 9 14 998.8 - 0.0
25/09:00am 5.5 0.2 4.8 95 0.3 ENE 22 28 12 15 999.5 999.8 0.2
25/08:30am 5.3 -0.1 4.6 95 0.3 ENE 22 30 12 16 999.8 - 0.2
25/08:00am 5.2 -0.2 4.5 95 0.3 E 22 35 12 19 1000.3 - 0.2
25/07:30am 5.1 0.3 4.4 95 0.3 E 19 26 10 14 1001.0 - 0.2
25/07:00am 4.9 -0.2 4.0 94 0.4 ENE 20 26 11 14 1001.6 - 0.2
25/06:30am 5.2 1.5 4.2 93 0.4 E 13 19 7 10 1002.0 - 0.2
25/06:00am 5.2 1.4 3.9 91 0.5 E 13 22 7 12 1002.2 1002.5 0.2
25/05:30am 5.4 2.4 3.9 90 0.6 ENE 9 13 5 7 1002.5 - 0.2
25/05:00am 5.5 2.9 4.2 91 0.6 NNE 7 15 4 8 1002.7 - 0.2
25/04:30am 5.6 2.6 4.1 90 0.6 NNE 9 20 5 11 1003.1 - 0.2
25/04:00am 5.6 3.2 4.1 90 0.6 N 6 9 3 5 1003.1 - 0.2
25/03:30am 5.7 3.7 4.3 91 0.6 NE 4 9 2 5 1003.1 - 0.2
25/03:00am 5.8 3.4 4.4 91 0.6 NW 6 7 3 4 1003.4 1003.7 0.2
25/02:30am 5.8 4.2 4.4 91 0.6 WNW 2 7 1 4 1003.4 - 0.2
25/02:00am 5.9 4.3 4.7 92 0.5 S 2 9 1 5 1003.6 - 0.2
25/01:30am 6.0 3.7 4.8 92 0.5 W 6 7 3 4 1003.5 - 0.2
25/01:00am 6.0 3.5 4.8 92 0.5 W 7 11 4 6 1003.6 - 0.2
25/12:30am 6.1 3.3 5.1 93 0.4 W 9 15 5 8 1003.5 - 0.2
25/12:00am 6.0 1.3 5.0 93 0.4 W 19 28 10 15 1003.3 1003.6 0.2
 
Date/Time
EDT
Temp
°C
App
Temp
°C
Dew
Point
°C
Rel
Hum
%
Delta-T
°C
Wind Press
QNH
hPa
Press
MSL
hPa
Rain since
9am
mm
Dir  Spd
km/h
Gust
km/h
Spd
kts
Gust
kts
24/11:30pm 6.0 0.7 5.1 94 0.4 W 22 28 12 15 1003.3 - 0.2
24/11:00pm 6.1 1.3 5.4 95 0.3 W 20 28 11 15 1003.1 - 0.2
24/10:30pm 6.2 1.6 5.6 96 0.3 W 19 26 10 14 1003.1 - 0.2
24/10:00pm 6.3 0.4 5.7 96 0.3 W 26 33 14 18 1002.7 - 0.0
24/09:30pm 6.4 0.5 5.8 96 0.3 W 26 33 14 18 1002.3 - 0.0
24/09:00pm 6.4 0.1 5.8 96 0.3 W 28 41 15 22 1002.1 1002.4 0.0
24/08:30pm 6.7 -0.3 6.1 96 0.3 W 32 41 17 22 1001.6 - 0.0
24/08:00pm 6.8 -0.7 6.2 96 0.3 W 35 43 19 23 1000.9 - 0.0
24/07:30pm 6.9 -0.6 6.5 97 0.2 W 35 43 19 23 1000.1 - 0.0
24/07:00pm 6.9 -0.9 6.5 97 0.2 W 37 46 20 25 999.5 - 0.0
24/06:30pm 6.9 -1.3 6.6 98 0.1 W 39 48 21 26 999.0 - 0.0
24/06:00pm 7.0 -1.6 6.6 97 0.2 W 41 46 22 25 998.4 998.7 0.0
24/05:30pm 7.2 -0.5 6.9 98 0.1 W 37 44 20 24 997.8 - 0.0
24/05:00pm 7.6 0.3 7.3 98 0.1 WNW 35 46 19 25 997.2 - 0.0
24/04:30pm 7.8 1.5 7.4 97 0.2 WNW 30 35 16 19 996.9 - 0.0
24/04:00pm 8.2 2.0 7.8 97 0.2 NW 30 35 16 19 996.6 - 0.0
24/03:30pm 8.6 2.5 8.2 97 0.2 NW 30 35 16 19 996.4 - 0.0
24/03:00pm 8.7 2.6 8.4 98 0.1 NW 30 39 16 21 996.1 996.4 0.0
24/02:30pm 8.5 1.0 8.1 97 0.2 NNW 37 41 20 22 996.1 - 0.0
24/02:00pm 8.4 0.6 8.1 98 0.1 NNW 39 44 21 24 995.8 - 0.0
24/01:30pm 8.2 0.3 7.9 98 0.1 NNW 39 44 21 24 995.6 - 0.0
24/01:00pm 7.9 -0.1 7.5 97 0.2 NNW 39 44 21 24 995.7 - 0.0
24/12:30pm 7.9 0.7 7.5 97 0.2 NNW 35 41 19 22 995.8 - 0.0
24/12:00pm 7.9 1.2 7.5 97 0.2 NNW 32 37 17 20 996.1 996.4 0.0
24/11:30am 8.7 4.1 8.3 97 0.2 NW 22 24 12 13 996.3 - 0.0
24/11:00am 8.2 3.5 7.8 97 0.2 NW 22 26 12 14 996.7 - 0.0
24/10:30am 7.9 3.5 7.5 97 0.2 NW 20 24 11 13 996.6 - 0.0
24/10:00am 8.0 2.5 7.6 97 0.2 NW 26 32 14 17 996.8 - 0.0
24/09:30am 7.8 3.4 7.4 97 0.2 NNW 20 24 11 13 996.6 - 0.0
24/09:00am 7.7 2.5 7.3 97 0.2 NNW 24 28 13 15 996.6 996.9 1.4
24/08:30am 7.6 3.3 7.2 97 0.2 WNW 19 22 10 12 996.7 - 1.4
24/08:00am 7.6 3.7 7.2 97 0.2 WNW 17 20 9 11 996.8 - 1.4
24/07:30am 7.7 4.6 7.3 97 0.2 NW 13 19 7 10 996.8 - 1.4
24/07:00am 8.1 5.1 7.7 97 0.2 ENE 13 22 7 12 997.1 - 1.2
24/06:30am 7.5 5.7 7.1 97 0.2 ESE 6 9 3 5 997.5 - 1.2
24/06:00am 7.4 5.4 7.0 97 0.2 SE 7 11 4 6 998.3 998.6 1.2
24/05:30am 7.4 4.2 7.0 97 0.2 SSE 13 17 7 9 998.8 - 1.2
24/05:00am 7.4 4.2 7.0 97 0.2 S 13 19 7 10 999.3 - 1.0
24/04:30am 7.3 3.3 6.7 96 0.3 SSE 17 20 9 11 999.7 - 1.0
24/04:00am 7.3 4.1 6.7 96 0.3 SE 13 17 7 9 1001.0 - 1.0
24/03:30am 7.3 4.4 6.7 96 0.3 SE 11 17 6 9 1001.9 - 1.0
24/03:00am 7.3 3.7 6.7 96 0.3 SE 15 19 8 10 1002.6 1002.9 0.8
24/02:30am 7.3 2.9 6.7 96 0.3 SSE 19 24 10 13 1003.3 - 0.8
24/02:00am 7.3 2.9 6.7 96 0.3 SSE 19 26 10 14 1004.4 - 0.8
24/01:30am 7.4 2.9 6.8 96 0.3 SSE 20 32 11 17 1005.3 - 0.8
24/01:00am 7.4 2.5 6.8 96 0.3 SSE 22 30 12 16 1006.3 - 0.8
24/12:30am 7.2 1.8 6.5 95 0.3 SSE 24 30 13 16 1007.2 - 0.6
24/12:00am 7.1 1.7 6.4 95 0.3 SSE 24 30 13 16 1008.1 1008.4 0.4
 
Date/Time
EDT
Temp
°C
App
Temp
°C
Dew
Point
°C
Rel
Hum
%
Delta-T
°C
Wind Press
QNH
hPa
Press
MSL
hPa
Rain since
9am
mm
Dir  Spd
km/h
Gust
km/h
Spd
kts
Gust
kts
23/11:30pm 7.1 2.7 6.4 95 0.3 SE 19 24 10 13 1009.0 - 0.2
23/11:00pm 7.0 2.3 6.1 94 0.4 ESE 20 28 11 15 1009.9 - 0.0
23/10:30pm 7.0 2.3 6.1 94 0.4 ESE 20 28 11 15 1010.8 - 0.0
23/10:00pm 7.1 2.0 6.0 93 0.5 ESE 22 30 12 16 1011.6 - 0.0
23/09:30pm 7.0 2.2 5.8 92 0.5 ESE 20 30 11 16 1012.4 - 0.0
23/09:00pm 7.1 2.3 5.4 89 0.8 E 20 35 11 19 1013.0 1013.3 0.0
23/08:30pm 7.3 2.6 5.1 86 1.0 E 19 30 10 16 1013.5 - 0.0
23/08:00pm 7.2 2.4 4.9 85 1.0 ESE 19 28 10 15 1014.1 - 0.0
23/07:30pm 7.1 2.1 4.6 84 1.1 ESE 20 28 11 15 1014.7 - 0.0
23/07:00pm 7.2 1.4 4.5 83 1.2 ESE 24 33 13 18 1015.2 - 0.0
23/06:30pm 7.2 2.3 4.3 82 1.3 E 19 30 10 16 1015.9 - 0.0
23/06:00pm 7.2 1.4 4.5 83 1.2 ESE 24 32 13 17 1016.5 1016.8 0.0
23/05:30pm 7.1 2.0 4.2 82 1.3 ESE 20 28 11 15 1017.2 - 0.0

Other formats

Comma delimited format used in spreadsheet applications
http://www.bom.gov.au/fwo/IDT60801/IDT60801.94998.axf

JavaScript Object Notation format (JSON) in row-major order
http://www.bom.gov.au/fwo/IDT60801/IDT60801.94998.json

Data quality

Most of these data are generated automatically and are frequently updated. Quality checks on data are not normally performed. It is possible for incorrect values to appear. Refer to information at About Latest Weather Observations and please check the disclaimer before using these data.